<?xml version="1.0" encoding="UTF-8" standalone="no" ?>
<gpx xmlns="http://www.topografix.com/GPX/1/1" xmlns:xsi="http://www.w3.org/2001/XMLSchema-instance" xsi:schemaLocation="http://www.topografix.com/GPX/1/1 http://www.topografix.com/GPX/1/1/gpx.xsd" version="1.1" creator="VisuGPX - https://www.visugpx.com">
  <metadata>
    <name>Suède</name>
  </metadata>
  <trk>
    <name><![CDATA[Tour d'Europe: étape 095]]></name>
    <trkseg>
      <trkpt lat="63.827" lon="20.25631">
        <ele>47.909622</ele>
        <time>2020-10-01T08:17:08.278Z</time>
      </trkpt>
      <trkpt lat="63.8278" lon="20.25175">
        <ele>59.304386</ele>
        <time>2020-10-01T08:18:13.276Z</time>
      </trkpt>
      <trkpt lat="63.82608" lon="20.24987">
        <ele>48.851413</ele>
        <time>2020-10-01T08:19:02.263Z</time>
      </trkpt>
      <trkpt lat="63.82387" lon="20.24833">
        <ele>35.465793</ele>
        <time>2020-10-01T08:20:01.246Z</time>
      </trkpt>
      <trkpt lat="63.82192" lon="20.24638">
        <ele>43.196776</ele>
        <time>2020-10-01T08:21:06.283Z</time>
      </trkpt>
      <trkpt lat="63.82059" lon="20.24741">
        <ele>43.489392</ele>
        <time>2020-10-01T08:22:10.234Z</time>
      </trkpt>
      <trkpt lat="63.82114" lon="20.24488">
        <ele>42.670615</ele>
        <time>2020-10-01T08:23:23.268Z</time>
      </trkpt>
      <trkpt lat="63.81988" lon="20.24046">
        <ele>43.535306</ele>
        <time>2020-10-01T08:24:19.238Z</time>
      </trkpt>
      <trkpt lat="63.81868" lon="20.23609">
        <ele>50.308478</ele>
        <time>2020-10-01T08:25:16.250Z</time>
      </trkpt>
      <trkpt lat="63.81735" lon="20.23216">
        <ele>48.052975</ele>
        <time>2020-10-01T08:26:05.230Z</time>
      </trkpt>
      <trkpt lat="63.81674" lon="20.22628">
        <ele>38.08718</ele>
        <time>2020-10-01T08:26:47.262Z</time>
      </trkpt>
      <trkpt lat="63.81606" lon="20.22195">
        <ele>33.308149</ele>
        <time>2020-10-01T08:27:27.258Z</time>
      </trkpt>
      <trkpt lat="63.81479" lon="20.21824">
        <ele>36.333493</ele>
        <time>2020-10-01T08:28:10.245Z</time>
      </trkpt>
      <trkpt lat="63.81348" lon="20.21462">
        <ele>36.988115</ele>
        <time>2020-10-01T08:28:53.236Z</time>
      </trkpt>
      <trkpt lat="63.81233" lon="20.21033">
        <ele>32.932703</ele>
        <time>2020-10-01T08:29:41.261Z</time>
      </trkpt>
      <trkpt lat="63.81077" lon="20.20677">
        <ele>32.251095</ele>
        <time>2020-10-01T08:30:38.239Z</time>
      </trkpt>
      <trkpt lat="63.80936" lon="20.20428">
        <ele>38.146238</ele>
        <time>2020-10-01T08:31:38.247Z</time>
      </trkpt>
      <trkpt lat="63.80769" lon="20.20173">
        <ele>46.469554</ele>
        <time>2020-10-01T08:32:53.266Z</time>
      </trkpt>
      <trkpt lat="63.80564" lon="20.20067">
        <ele>46.431005</ele>
        <time>2020-10-01T08:33:46.252Z</time>
      </trkpt>
      <trkpt lat="63.80367" lon="20.20075">
        <ele>39.58006</ele>
        <time>2020-10-01T08:34:29.243Z</time>
      </trkpt>
      <trkpt lat="63.80123" lon="20.2017">
        <ele>45.36536</ele>
        <time>2020-10-01T08:35:28.255Z</time>
      </trkpt>
      <trkpt lat="63.79929" lon="20.20296">
        <ele>52.303693</ele>
        <time>2020-10-01T08:36:34.294Z</time>
      </trkpt>
      <trkpt lat="63.79724" lon="20.2046">
        <ele>52.518636</ele>
        <time>2020-10-01T08:37:25.241Z</time>
      </trkpt>
      <trkpt lat="63.7951" lon="20.20529">
        <ele>51.146978</ele>
        <time>2020-10-01T08:38:15.254Z</time>
      </trkpt>
      <trkpt lat="63.79311" lon="20.2051">
        <ele>54.835765</ele>
        <time>2020-10-01T08:39:15.265Z</time>
      </trkpt>
      <trkpt lat="63.79103" lon="20.20287">
        <ele>52.943281</ele>
        <time>2020-10-01T08:40:04.281Z</time>
      </trkpt>
      <trkpt lat="63.78906" lon="20.20119">
        <ele>48.623446</ele>
        <time>2020-10-01T08:40:46.257Z</time>
      </trkpt>
      <trkpt lat="63.78706" lon="20.19982">
        <ele>49.710206</ele>
        <time>2020-10-01T08:41:27.249Z</time>
      </trkpt>
      <trkpt lat="63.78494" lon="20.1985">
        <ele>50.975501</ele>
        <time>2020-10-01T08:42:09.237Z</time>
      </trkpt>
      <trkpt lat="63.7832" lon="20.19585">
        <ele>51.300154</ele>
        <time>2020-10-01T08:43:02.239Z</time>
      </trkpt>
      <trkpt lat="63.78151" lon="20.19352">
        <ele>57.199713</ele>
        <time>2020-10-01T08:43:59.286Z</time>
      </trkpt>
      <trkpt lat="63.7794" lon="20.19487">
        <ele>50.677352</ele>
        <time>2020-10-01T08:44:47.264Z</time>
      </trkpt>
      <trkpt lat="63.7774" lon="20.19613">
        <ele>47.452172</ele>
        <time>2020-10-01T08:45:35.247Z</time>
      </trkpt>
      <trkpt lat="63.7755" lon="20.19872">
        <ele>52.957824</ele>
        <time>2020-10-01T08:46:35.242Z</time>
      </trkpt>
      <trkpt lat="63.77344" lon="20.20028">
        <ele>51.152327</ele>
        <time>2020-10-01T08:47:21.264Z</time>
      </trkpt>
      <trkpt lat="63.77217" lon="20.20348">
        <ele>48.511607</ele>
        <time>2020-10-01T08:48:01.258Z</time>
      </trkpt>
      <trkpt lat="63.77015" lon="20.20424">
        <ele>48.648737</ele>
        <time>2020-10-01T08:48:45.249Z</time>
      </trkpt>
      <trkpt lat="63.76826" lon="20.20521">
        <ele>47.912967</ele>
        <time>2020-10-01T08:49:26.242Z</time>
      </trkpt>
      <trkpt lat="63.76628" lon="20.20655">
        <ele>48.555587</ele>
        <time>2020-10-01T08:50:11.265Z</time>
      </trkpt>
      <trkpt lat="63.76403" lon="20.208">
        <ele>49.159553</ele>
        <time>2020-10-01T08:51:06.259Z</time>
      </trkpt>
      <trkpt lat="63.76201" lon="20.20898">
        <ele>49.270785</ele>
        <time>2020-10-01T08:51:51.265Z</time>
      </trkpt>
      <trkpt lat="63.76018" lon="20.20869">
        <ele>50.77289</ele>
        <time>2020-10-01T08:52:32.266Z</time>
      </trkpt>
      <trkpt lat="63.75826" lon="20.20784">
        <ele>51.737808</ele>
        <time>2020-10-01T08:53:12.282Z</time>
      </trkpt>
      <trkpt lat="63.75633" lon="20.20709">
        <ele>47.76301</ele>
        <time>2020-10-01T08:53:53.261Z</time>
      </trkpt>
      <trkpt lat="63.75427" lon="20.20605">
        <ele>43.634616</ele>
        <time>2020-10-01T08:54:36.262Z</time>
      </trkpt>
      <trkpt lat="63.75207" lon="20.2046">
        <ele>52.949825</ele>
        <time>2020-10-01T08:55:36.274Z</time>
      </trkpt>
      <trkpt lat="63.75013" lon="20.20228">
        <ele>63.67358</ele>
        <time>2020-10-01T08:56:36.280Z</time>
      </trkpt>
      <trkpt lat="63.74821" lon="20.20027">
        <ele>62.78423</ele>
        <time>2020-10-01T08:57:22.265Z</time>
      </trkpt>
      <trkpt lat="63.74602" lon="20.19844">
        <ele>60.558964</ele>
        <time>2020-10-01T08:58:15.247Z</time>
      </trkpt>
      <trkpt lat="63.74356" lon="20.19699">
        <ele>71.708514</ele>
        <time>2020-10-01T09:04:41.238Z</time>
      </trkpt>
      <trkpt lat="63.74163" lon="20.19531">
        <ele>70.513856</ele>
        <time>2020-10-01T09:05:54.265Z</time>
      </trkpt>
      <trkpt lat="63.74001" lon="20.19272">
        <ele>74.001131</ele>
        <time>2020-10-01T09:07:11.267Z</time>
      </trkpt>
      <trkpt lat="63.73865" lon="20.18869">
        <ele>85.502189</ele>
        <time>2020-10-01T09:08:34.280Z</time>
      </trkpt>
      <trkpt lat="63.73689" lon="20.18622">
        <ele>81.816249</ele>
        <time>2020-10-01T09:09:34.261Z</time>
      </trkpt>
      <trkpt lat="63.73537" lon="20.18326">
        <ele>79.302583</ele>
        <time>2020-10-01T09:10:34.248Z</time>
      </trkpt>
      <trkpt lat="63.73349" lon="20.18151">
        <ele>77.493161</ele>
        <time>2020-10-01T09:11:15.270Z</time>
      </trkpt>
      <trkpt lat="63.73157" lon="20.17995">
        <ele>78.585132</ele>
        <time>2020-10-01T09:11:57.258Z</time>
      </trkpt>
      <trkpt lat="63.72958" lon="20.17909">
        <ele>80.615704</ele>
        <time>2020-10-01T09:12:37.271Z</time>
      </trkpt>
      <trkpt lat="63.72757" lon="20.17815">
        <ele>77.26565</ele>
        <time>2020-10-01T09:13:17.273Z</time>
      </trkpt>
      <trkpt lat="63.72558" lon="20.17664">
        <ele>78.114143</ele>
        <time>2020-10-01T09:18:37.258Z</time>
      </trkpt>
      <trkpt lat="63.72413" lon="20.17345">
        <ele>77.464779</ele>
        <time>2020-10-01T09:19:18.258Z</time>
      </trkpt>
      <trkpt lat="63.72248" lon="20.17069">
        <ele>72.212112</ele>
        <time>2020-10-01T09:20:06.254Z</time>
      </trkpt>
      <trkpt lat="63.72022" lon="20.16915">
        <ele>70.430631</ele>
        <time>2020-10-01T09:20:55.248Z</time>
      </trkpt>
      <trkpt lat="63.71767" lon="20.16818">
        <ele>63.860442</ele>
        <time>2020-10-01T09:21:35.307Z</time>
      </trkpt>
      <trkpt lat="63.71552" lon="20.16824">
        <ele>67.44426</ele>
        <time>2020-10-01T09:22:15.264Z</time>
      </trkpt>
      <trkpt lat="63.7135" lon="20.16644">
        <ele>68.888939</ele>
        <time>2020-10-01T09:22:55.259Z</time>
      </trkpt>
      <trkpt lat="63.7116" lon="20.16427">
        <ele>66.451979</ele>
        <time>2020-10-01T09:23:35.282Z</time>
      </trkpt>
      <trkpt lat="63.70978" lon="20.16207">
        <ele>65.997018</ele>
        <time>2020-10-01T09:24:15.261Z</time>
      </trkpt>
      <trkpt lat="63.70767" lon="20.15937">
        <ele>61.328008</ele>
        <time>2020-10-01T09:24:55.267Z</time>
      </trkpt>
      <trkpt lat="63.70604" lon="20.15577">
        <ele>62.231691</ele>
        <time>2020-10-01T09:25:46.262Z</time>
      </trkpt>
      <trkpt lat="63.70427" lon="20.15327">
        <ele>69.74545</ele>
        <time>2020-10-01T09:26:48.261Z</time>
      </trkpt>
      <trkpt lat="63.70251" lon="20.15069">
        <ele>72.105684</ele>
        <time>2020-10-01T09:27:48.247Z</time>
      </trkpt>
      <trkpt lat="63.7005" lon="20.14956">
        <ele>75.606043</ele>
        <time>2020-10-01T09:28:46.302Z</time>
      </trkpt>
      <trkpt lat="63.69839" lon="20.14738">
        <ele>69.931664</ele>
        <time>2020-10-01T09:29:29.286Z</time>
      </trkpt>
      <trkpt lat="63.6968" lon="20.14385">
        <ele>69.496592</ele>
        <time>2020-10-01T09:30:13.280Z</time>
      </trkpt>
      <trkpt lat="63.69536" lon="20.14102">
        <ele>69.904403</ele>
        <time>2020-10-01T09:30:54.260Z</time>
      </trkpt>
      <trkpt lat="63.69314" lon="20.13914">
        <ele>69.595207</ele>
        <time>2020-10-01T09:31:51.321Z</time>
      </trkpt>
      <trkpt lat="63.69112" lon="20.13876">
        <ele>66.127805</ele>
        <time>2020-10-01T09:32:34.284Z</time>
      </trkpt>
      <trkpt lat="63.68898" lon="20.13832">
        <ele>66.354654</ele>
        <time>2020-10-01T09:33:21.243Z</time>
      </trkpt>
      <trkpt lat="63.68684" lon="20.13685">
        <ele>66.480968</ele>
        <time>2020-10-01T09:34:12.251Z</time>
      </trkpt>
      <trkpt lat="63.68452" lon="20.13569">
        <ele>60.341691</ele>
        <time>2020-10-01T09:34:52.280Z</time>
      </trkpt>
      <trkpt lat="63.68223" lon="20.1353">
        <ele>55.471946</ele>
        <time>2020-10-01T09:35:32.283Z</time>
      </trkpt>
      <trkpt lat="63.68027" lon="20.13247">
        <ele>61.73162</ele>
        <time>2020-10-01T09:36:31.270Z</time>
      </trkpt>
      <trkpt lat="63.67836" lon="20.13115">
        <ele>60.496393</ele>
        <time>2020-10-01T09:37:21.253Z</time>
      </trkpt>
      <trkpt lat="63.6762" lon="20.12987">
        <ele>52.836374</ele>
        <time>2020-10-01T09:38:01.244Z</time>
      </trkpt>
      <trkpt lat="63.67455" lon="20.12695">
        <ele>52.237587</ele>
        <time>2020-10-01T09:38:47.325Z</time>
      </trkpt>
      <trkpt lat="63.67365" lon="20.12182">
        <ele>53.50008</ele>
        <time>2020-10-01T09:39:27.269Z</time>
      </trkpt>
      <trkpt lat="63.67375" lon="20.11547">
        <ele>40.445954</ele>
        <time>2020-10-01T09:40:04.303Z</time>
      </trkpt>
      <trkpt lat="63.67428" lon="20.11095">
        <ele>47.002911</ele>
        <time>2020-10-01T09:41:03.274Z</time>
      </trkpt>
      <trkpt lat="63.67532" lon="20.10718">
        <ele>59.371522</ele>
        <time>2020-10-01T09:42:58.269Z</time>
      </trkpt>
      <trkpt lat="63.67514" lon="20.1028">
        <ele>60.205794</ele>
        <time>2020-10-01T09:43:56.250Z</time>
      </trkpt>
      <trkpt lat="63.67447" lon="20.09811">
        <ele>59.715066</ele>
        <time>2020-10-01T09:44:59.284Z</time>
      </trkpt>
      <trkpt lat="63.67517" lon="20.09358">
        <ele>58.401968</ele>
        <time>2020-10-01T09:45:48.268Z</time>
      </trkpt>
      <trkpt lat="63.67589" lon="20.08886">
        <ele>59.011789</ele>
        <time>2020-10-01T09:46:37.268Z</time>
      </trkpt>
      <trkpt lat="63.67685" lon="20.08501">
        <ele>64.697999</ele>
        <time>2020-10-01T09:47:29.258Z</time>
      </trkpt>
      <trkpt lat="63.67721" lon="20.08017">
        <ele>67.377146</ele>
        <time>2020-10-01T09:48:17.292Z</time>
      </trkpt>
      <trkpt lat="63.67762" lon="20.07422">
        <ele>62.203889</ele>
        <time>2020-10-01T09:48:50.265Z</time>
      </trkpt>
      <trkpt lat="63.67756" lon="20.06954">
        <ele>46.199557</ele>
        <time>2020-10-01T09:49:11.281Z</time>
      </trkpt>
      <trkpt lat="63.67841" lon="20.0647">
        <ele>29.877444</ele>
        <time>2020-10-01T09:49:40.297Z</time>
      </trkpt>
      <trkpt lat="63.67958" lon="20.0606">
        <ele>29.597506</ele>
        <time>2020-10-01T09:50:20.299Z</time>
      </trkpt>
      <trkpt lat="63.68022" lon="20.05625">
        <ele>28.761927</ele>
        <time>2020-10-01T09:51:00.257Z</time>
      </trkpt>
      <trkpt lat="63.68068" lon="20.05166">
        <ele>36.817294</ele>
        <time>2020-10-01T09:51:44.289Z</time>
      </trkpt>
      <trkpt lat="63.68139" lon="20.04702">
        <ele>40.704064</ele>
        <time>2020-10-01T09:52:44.287Z</time>
      </trkpt>
      <trkpt lat="63.6817" lon="20.04218">
        <ele>40.545775</ele>
        <time>2020-10-01T09:53:41.270Z</time>
      </trkpt>
      <trkpt lat="63.68155" lon="20.03716">
        <ele>35.637924</ele>
        <time>2020-10-01T09:54:27.304Z</time>
      </trkpt>
      <trkpt lat="63.68085" lon="20.03266">
        <ele>38.3288</ele>
        <time>2020-10-01T09:55:07.260Z</time>
      </trkpt>
      <trkpt lat="63.67958" lon="20.02928">
        <ele>40.751403</ele>
        <time>2020-10-01T09:55:47.278Z</time>
      </trkpt>
      <trkpt lat="63.67936" lon="20.0248">
        <ele>39.240444</ele>
        <time>2020-10-01T09:56:43.266Z</time>
      </trkpt>
      <trkpt lat="63.68037" lon="20.02119">
        <ele>45.91493</ele>
        <time>2020-10-01T09:58:12.262Z</time>
      </trkpt>
      <trkpt lat="63.68076" lon="20.01622">
        <ele>41.958541</ele>
        <time>2020-10-01T09:58:56.267Z</time>
      </trkpt>
      <trkpt lat="63.68054" lon="20.01064">
        <ele>43.017698</ele>
        <time>2020-10-01T09:59:44.281Z</time>
      </trkpt>
      <trkpt lat="63.68014" lon="20.00804">
        <ele>41.399167</ele>
        <time>2020-10-01T10:00:47.266Z</time>
      </trkpt>
      <trkpt lat="63.67814" lon="20.00674">
        <ele>40.914126</ele>
        <time>2020-10-01T10:01:33.262Z</time>
      </trkpt>
      <trkpt lat="63.67707" lon="20.00281">
        <ele>32.429723</ele>
        <time>2020-10-01T10:02:21.268Z</time>
      </trkpt>
      <trkpt lat="63.6751" lon="20.00087">
        <ele>37.905866</ele>
        <time>2020-10-01T10:03:28.289Z</time>
      </trkpt>
      <trkpt lat="63.67344" lon="20.00089">
        <ele>32.908237</ele>
        <time>2020-10-01T10:04:14.266Z</time>
      </trkpt>
      <trkpt lat="63.67161" lon="20.00265">
        <ele>38.263759</ele>
        <time>2020-10-01T10:05:26.269Z</time>
      </trkpt>
      <trkpt lat="63.66978" lon="20.00069">
        <ele>43.990793</ele>
        <time>2020-10-01T10:06:08.283Z</time>
      </trkpt>
      <trkpt lat="63.66798" lon="19.99891">
        <ele>42.486354</ele>
        <time>2020-10-01T10:06:49.295Z</time>
      </trkpt>
      <trkpt lat="63.66608" lon="19.99862">
        <ele>38.130187</ele>
        <time>2020-10-01T10:07:29.270Z</time>
      </trkpt>
      <trkpt lat="63.66393" lon="19.99684">
        <ele>44.253321</ele>
        <time>2020-10-01T10:08:25.313Z</time>
      </trkpt>
      <trkpt lat="63.66206" lon="19.99551">
        <ele>42.861757</ele>
        <time>2020-10-01T10:09:07.275Z</time>
      </trkpt>
      <trkpt lat="63.65984" lon="19.99545">
        <ele>38.740375</ele>
        <time>2020-10-01T10:09:57.301Z</time>
      </trkpt>
      <trkpt lat="63.65773" lon="19.99536">
        <ele>38.819504</ele>
        <time>2020-10-01T10:10:44.301Z</time>
      </trkpt>
      <trkpt lat="63.65607" lon="19.99264">
        <ele>39.556709</ele>
        <time>2020-10-01T10:11:29.268Z</time>
      </trkpt>
      <trkpt lat="63.65443" lon="19.9898">
        <ele>39.097174</ele>
        <time>2020-10-01T10:12:15.279Z</time>
      </trkpt>
      <trkpt lat="63.65248" lon="19.98901">
        <ele>40.428016</ele>
        <time>2020-10-01T10:12:59.267Z</time>
      </trkpt>
      <trkpt lat="63.65069" lon="19.98747">
        <ele>47.162218</ele>
        <time>2020-10-01T10:14:03.278Z</time>
      </trkpt>
      <trkpt lat="63.64866" lon="19.98613">
        <ele>51.684206</ele>
        <time>2020-10-01T10:15:12.301Z</time>
      </trkpt>
      <trkpt lat="63.64744" lon="19.98253">
        <ele>52.155073</ele>
        <time>2020-10-01T10:16:10.262Z</time>
      </trkpt>
      <trkpt lat="63.64575" lon="19.97951">
        <ele>44.727583</ele>
        <time>2020-10-01T10:16:50.306Z</time>
      </trkpt>
      <trkpt lat="63.64456" lon="19.97544">
        <ele>48.364961</ele>
        <time>2020-10-01T10:18:01.272Z</time>
      </trkpt>
      <trkpt lat="63.64271" lon="19.97207">
        <ele>47.623804</ele>
        <time>2020-10-01T10:18:50.275Z</time>
      </trkpt>
      <trkpt lat="63.64185" lon="19.96769">
        <ele>45.74632</ele>
        <time>2020-10-01T10:19:40.298Z</time>
      </trkpt>
      <trkpt lat="63.64111" lon="19.96286">
        <ele>46.319158</ele>
        <time>2020-10-01T10:20:27.275Z</time>
      </trkpt>
      <trkpt lat="63.64123" lon="19.95816">
        <ele>45.46344</ele>
        <time>2020-10-01T10:21:39.277Z</time>
      </trkpt>
      <trkpt lat="63.63993" lon="19.95414">
        <ele>45.279951</ele>
        <time>2020-10-01T10:22:34.275Z</time>
      </trkpt>
      <trkpt lat="63.64097" lon="19.95013">
        <ele>51.981638</ele>
        <time>2020-10-01T10:23:41.272Z</time>
      </trkpt>
      <trkpt lat="63.64171" lon="19.94563">
        <ele>55.604115</ele>
        <time>2020-10-01T10:24:50.265Z</time>
      </trkpt>
      <trkpt lat="63.64128" lon="19.94082">
        <ele>48.31369</ele>
        <time>2020-10-01T10:25:22.285Z</time>
      </trkpt>
      <trkpt lat="63.64047" lon="19.9369">
        <ele>48.176946</ele>
        <time>2020-10-01T10:26:02.271Z</time>
      </trkpt>
      <trkpt lat="63.63935" lon="19.93225">
        <ele>42.962049</ele>
        <time>2020-10-01T10:26:33.281Z</time>
      </trkpt>
      <trkpt lat="63.63952" lon="19.92672">
        <ele>35.187033</ele>
        <time>2020-10-01T10:27:06.272Z</time>
      </trkpt>
      <trkpt lat="63.63847" lon="19.92294">
        <ele>35.921693</ele>
        <time>2020-10-01T10:27:47.285Z</time>
      </trkpt>
      <trkpt lat="63.63655" lon="19.92041">
        <ele>35.814009</ele>
        <time>2020-10-01T10:28:27.307Z</time>
      </trkpt>
      <trkpt lat="63.63439" lon="19.92128">
        <ele>33.168853</ele>
        <time>2020-10-01T10:29:07.306Z</time>
      </trkpt>
      <trkpt lat="63.63229" lon="19.92263">
        <ele>35.838996</ele>
        <time>2020-10-01T10:29:50.302Z</time>
      </trkpt>
      <trkpt lat="63.63016" lon="19.92309">
        <ele>38.82483</ele>
        <time>2020-10-01T10:30:32.285Z</time>
      </trkpt>
      <trkpt lat="63.62815" lon="19.92144">
        <ele>35.133861</ele>
        <time>2020-10-01T10:31:12.267Z</time>
      </trkpt>
      <trkpt lat="63.62629" lon="19.91931">
        <ele>32.132992</ele>
        <time>2020-10-01T10:31:52.322Z</time>
      </trkpt>
      <trkpt lat="63.62511" lon="19.91554">
        <ele>33.579486</ele>
        <time>2020-10-01T10:32:37.274Z</time>
      </trkpt>
      <trkpt lat="63.62399" lon="19.9115">
        <ele>31.495363</ele>
        <time>2020-10-01T10:33:18.282Z</time>
      </trkpt>
      <trkpt lat="63.62297" lon="19.90755">
        <ele>28.562274</ele>
        <time>2020-10-01T10:33:59.284Z</time>
      </trkpt>
      <trkpt lat="63.62281" lon="19.90321">
        <ele>28.043902</ele>
        <time>2020-10-01T10:34:39.271Z</time>
      </trkpt>
      <trkpt lat="63.62269" lon="19.89841">
        <ele>26.007699</ele>
        <time>2020-10-01T10:35:23.286Z</time>
      </trkpt>
      <trkpt lat="63.62167" lon="19.89462">
        <ele>31.579511</ele>
        <time>2020-10-01T10:36:06.303Z</time>
      </trkpt>
      <trkpt lat="63.62029" lon="19.89128">
        <ele>36.086383</ele>
        <time>2020-10-01T10:36:48.279Z</time>
      </trkpt>
      <trkpt lat="63.61877" lon="19.88816">
        <ele>38.262199</ele>
        <time>2020-10-01T10:37:46.285Z</time>
      </trkpt>
      <trkpt lat="63.61694" lon="19.88519">
        <ele>34.629443</ele>
        <time>2020-10-01T10:38:46.309Z</time>
      </trkpt>
      <trkpt lat="63.61544" lon="19.882">
        <ele>30.483821</ele>
        <time>2020-10-01T10:39:48.295Z</time>
      </trkpt>
      <trkpt lat="63.61384" lon="19.87822">
        <ele>26.228768</ele>
        <time>2020-10-01T10:40:28.285Z</time>
      </trkpt>
      <trkpt lat="63.61211" lon="19.87533">
        <ele>42.327562</ele>
        <time>2020-10-01T11:07:39.059Z</time>
      </trkpt>
      <trkpt lat="63.6104" lon="19.87171">
        <ele>35.770609</ele>
        <time>2020-10-01T11:08:27.048Z</time>
      </trkpt>
      <trkpt lat="63.6088" lon="19.86802">
        <ele>34.827377</ele>
        <time>2020-10-01T11:09:16.041Z</time>
      </trkpt>
      <trkpt lat="63.60719" lon="19.86431">
        <ele>27.639444</ele>
        <time>2020-10-01T11:10:03.071Z</time>
      </trkpt>
      <trkpt lat="63.6056" lon="19.86055">
        <ele>27.905287</ele>
        <time>2020-10-01T11:10:43.070Z</time>
      </trkpt>
      <trkpt lat="63.60376" lon="19.857">
        <ele>28.06214</ele>
        <time>2020-10-01T11:11:23.097Z</time>
      </trkpt>
      <trkpt lat="63.60162" lon="19.856">
        <ele>26.922594</ele>
        <time>2020-10-01T11:12:03.062Z</time>
      </trkpt>
      <trkpt lat="63.59971" lon="19.85376">
        <ele>25.284664</ele>
        <time>2020-10-01T11:12:43.055Z</time>
      </trkpt>
      <trkpt lat="63.59794" lon="19.85074">
        <ele>24.530277</ele>
        <time>2020-10-01T11:13:23.049Z</time>
      </trkpt>
      <trkpt lat="63.59625" lon="19.84805">
        <ele>23.574252</ele>
        <time>2020-10-01T11:14:03.056Z</time>
      </trkpt>
      <trkpt lat="63.5942" lon="19.84645">
        <ele>26.406853</ele>
        <time>2020-10-01T11:14:52.105Z</time>
      </trkpt>
      <trkpt lat="63.59201" lon="19.84477">
        <ele>28.529172</ele>
        <time>2020-10-01T11:15:47.067Z</time>
      </trkpt>
      <trkpt lat="63.58991" lon="19.84315">
        <ele>34.26999</ele>
        <time>2020-10-01T11:16:39.099Z</time>
      </trkpt>
      <trkpt lat="63.58796" lon="19.84175">
        <ele>36.455576</ele>
        <time>2020-10-01T11:17:24.063Z</time>
      </trkpt>
      <trkpt lat="63.58572" lon="19.84061">
        <ele>35.158905</ele>
        <time>2020-10-01T11:18:16.053Z</time>
      </trkpt>
      <trkpt lat="63.58377" lon="19.83831">
        <ele>33.614852</ele>
        <time>2020-10-01T11:19:01.059Z</time>
      </trkpt>
      <trkpt lat="63.58144" lon="19.83523">
        <ele>30.726017</ele>
        <time>2020-10-01T11:19:43.075Z</time>
      </trkpt>
      <trkpt lat="63.57951" lon="19.83305">
        <ele>30.236148</ele>
        <time>2020-10-01T11:20:24.051Z</time>
      </trkpt>
      <trkpt lat="63.57739" lon="19.83073">
        <ele>26.199386</ele>
        <time>2020-10-01T11:21:04.060Z</time>
      </trkpt>
      <trkpt lat="63.57534" lon="19.83002">
        <ele>35.261997</ele>
        <time>2020-10-01T11:21:56.048Z</time>
      </trkpt>
      <trkpt lat="63.57316" lon="19.82912">
        <ele>40.324849</ele>
        <time>2020-10-01T11:22:56.058Z</time>
      </trkpt>
      <trkpt lat="63.57126" lon="19.82707">
        <ele>45.177707</ele>
        <time>2020-10-01T11:24:05.048Z</time>
      </trkpt>
      <trkpt lat="63.56903" lon="19.82389">
        <ele>39.348386</ele>
        <time>2020-10-01T11:24:47.064Z</time>
      </trkpt>
      <trkpt lat="63.56766" lon="19.81981">
        <ele>33.889696</ele>
        <time>2020-10-01T11:25:40.049Z</time>
      </trkpt>
      <trkpt lat="63.56665" lon="19.81544">
        <ele>39.067357</ele>
        <time>2020-10-01T11:26:44.058Z</time>
      </trkpt>
      <trkpt lat="63.56635" lon="19.81079">
        <ele>41.440532</ele>
        <time>2020-10-01T11:27:43.077Z</time>
      </trkpt>
      <trkpt lat="63.56641" lon="19.80588">
        <ele>39.27255</ele>
        <time>2020-10-01T11:28:27.072Z</time>
      </trkpt>
      <trkpt lat="63.56646" lon="19.80133">
        <ele>43.652763</ele>
        <time>2020-10-01T11:29:27.070Z</time>
      </trkpt>
      <trkpt lat="63.56579" lon="19.79523">
        <ele>40.80647</ele>
        <time>2020-10-01T11:30:08.078Z</time>
      </trkpt>
      <trkpt lat="63.56545" lon="19.79056">
        <ele>43.861199</ele>
        <time>2020-10-01T11:31:07.073Z</time>
      </trkpt>
      <trkpt lat="63.56482" lon="19.78567">
        <ele>42.39425</ele>
        <time>2020-10-01T11:31:55.086Z</time>
      </trkpt>
      <trkpt lat="63.56437" lon="19.78022">
        <ele>35.498105</ele>
        <time>2020-10-01T11:32:35.048Z</time>
      </trkpt>
      <trkpt lat="63.56398" lon="19.77561">
        <ele>35.804495</ele>
        <time>2020-10-01T11:33:26.063Z</time>
      </trkpt>
      <trkpt lat="63.56351" lon="19.76992">
        <ele>34.357982</ele>
        <time>2020-10-01T11:34:07.080Z</time>
      </trkpt>
      <trkpt lat="63.56318" lon="19.76501">
        <ele>37.84991</ele>
        <time>2020-10-01T11:35:00.047Z</time>
      </trkpt>
      <trkpt lat="63.56305" lon="19.76046">
        <ele>39.609055</ele>
        <time>2020-10-01T11:36:03.060Z</time>
      </trkpt>
      <trkpt lat="63.563" lon="19.75521">
        <ele>41.107326</ele>
        <time>2020-10-01T11:36:54.099Z</time>
      </trkpt>
      <trkpt lat="63.5619" lon="19.75108">
        <ele>44.896618</ele>
        <time>2020-10-01T11:37:58.066Z</time>
      </trkpt>
      <trkpt lat="63.56114" lon="19.74545">
        <ele>39.638637</ele>
        <time>2020-10-01T11:38:51.068Z</time>
      </trkpt>
      <trkpt lat="63.56098" lon="19.74015">
        <ele>34.816317</ele>
        <time>2020-10-01T11:39:30.061Z</time>
      </trkpt>
      <trkpt lat="63.56063" lon="19.7348">
        <ele>31.20581</ele>
        <time>2020-10-01T11:40:05.061Z</time>
      </trkpt>
      <trkpt lat="63.56086" lon="19.7299">
        <ele>36.75923</ele>
        <time>2020-10-01T11:40:45.046Z</time>
      </trkpt>
      <trkpt lat="63.56116" lon="19.72517">
        <ele>39.609627</ele>
        <time>2020-10-01T11:41:25.107Z</time>
      </trkpt>
      <trkpt lat="63.56141" lon="19.72058">
        <ele>35.720229</ele>
        <time>2020-10-01T11:42:05.088Z</time>
      </trkpt>
      <trkpt lat="63.56168" lon="19.71632">
        <ele>37.863205</ele>
        <time>2020-10-01T11:42:45.078Z</time>
      </trkpt>
      <trkpt lat="63.56195" lon="19.71185">
        <ele>39.024863</ele>
        <time>2020-10-01T11:43:28.058Z</time>
      </trkpt>
      <trkpt lat="63.56254" lon="19.70765">
        <ele>36.01479</ele>
        <time>2020-10-01T11:44:09.063Z</time>
      </trkpt>
      <trkpt lat="63.56325" lon="19.70335">
        <ele>39.432797</ele>
        <time>2020-10-01T11:44:53.045Z</time>
      </trkpt>
      <trkpt lat="63.56309" lon="19.69848">
        <ele>37.538916</ele>
        <time>2020-10-01T11:45:33.092Z</time>
      </trkpt>
      <trkpt lat="63.56153" lon="19.69588">
        <ele>33.916867</ele>
        <time>2020-10-01T11:46:13.075Z</time>
      </trkpt>
      <trkpt lat="63.56164" lon="19.69126">
        <ele>36.673041</ele>
        <time>2020-10-01T11:47:09.096Z</time>
      </trkpt>
      <trkpt lat="63.56227" lon="19.68669">
        <ele>44.808221</ele>
        <time>2020-10-01T11:48:21.069Z</time>
      </trkpt>
      <trkpt lat="63.5636" lon="19.68249">
        <ele>43.127812</ele>
        <time>2020-10-01T11:49:15.064Z</time>
      </trkpt>
      <trkpt lat="63.56492" lon="19.6786">
        <ele>46.241292</ele>
        <time>2020-10-01T11:50:14.066Z</time>
      </trkpt>
      <trkpt lat="63.56626" lon="19.67458">
        <ele>48.767065</ele>
        <time>2020-10-01T11:51:14.079Z</time>
      </trkpt>
      <trkpt lat="63.56755" lon="19.67083">
        <ele>44.849156</ele>
        <time>2020-10-01T11:51:57.099Z</time>
      </trkpt>
      <trkpt lat="63.56904" lon="19.66747">
        <ele>45.037011</ele>
        <time>2020-10-01T11:52:50.062Z</time>
      </trkpt>
      <trkpt lat="63.57119" lon="19.66593">
        <ele>46.91251</ele>
        <time>2020-10-01T11:53:58.064Z</time>
      </trkpt>
      <trkpt lat="63.57343" lon="19.66443">
        <ele>47.928066</ele>
        <time>2020-10-01T11:54:58.055Z</time>
      </trkpt>
      <trkpt lat="63.57558" lon="19.66303">
        <ele>47.662933</ele>
        <time>2020-10-01T11:55:51.059Z</time>
      </trkpt>
      <trkpt lat="63.57672" lon="19.66015">
        <ele>49.062452</ele>
        <time>2020-10-01T11:56:42.070Z</time>
      </trkpt>
      <trkpt lat="63.57633" lon="19.6555">
        <ele>54.995049</ele>
        <time>2020-10-01T11:57:29.080Z</time>
      </trkpt>
      <trkpt lat="63.5763" lon="19.6508">
        <ele>52.737155</ele>
        <time>2020-10-01T11:58:27.080Z</time>
      </trkpt>
      <trkpt lat="63.57644" lon="19.64637">
        <ele>55.088538</ele>
        <time>2020-10-01T11:59:29.077Z</time>
      </trkpt>
      <trkpt lat="63.57648" lon="19.64189">
        <ele>62.951665</ele>
        <time>2020-10-01T12:00:34.062Z</time>
      </trkpt>
      <trkpt lat="63.57643" lon="19.63709">
        <ele>71.305119</ele>
        <time>2020-10-01T12:01:51.076Z</time>
      </trkpt>
      <trkpt lat="63.57606" lon="19.63262">
        <ele>76.533745</ele>
        <time>2020-10-01T12:03:18.110Z</time>
      </trkpt>
      <trkpt lat="63.57548" lon="19.62833">
        <ele>84.263275</ele>
        <time>2020-10-01T12:04:44.058Z</time>
      </trkpt>
      <trkpt lat="63.57453" lon="19.62453">
        <ele>88.120985</ele>
        <time>2020-10-01T12:06:07.080Z</time>
      </trkpt>
      <trkpt lat="63.57366" lon="19.62044">
        <ele>93.3148</ele>
        <time>2020-10-01T12:07:28.072Z</time>
      </trkpt>
      <trkpt lat="63.57454" lon="19.61479">
        <ele>76.596524</ele>
        <time>2020-10-01T12:08:09.077Z</time>
      </trkpt>
      <trkpt lat="63.57507" lon="19.60907">
        <ele>71.427876</ele>
        <time>2020-10-01T12:08:56.078Z</time>
      </trkpt>
      <trkpt lat="63.57568" lon="19.60424">
        <ele>77.299559</ele>
        <time>2020-10-01T12:09:56.099Z</time>
      </trkpt>
      <trkpt lat="63.57652" lon="19.5999">
        <ele>79.412672</ele>
        <time>2020-10-01T12:11:03.086Z</time>
      </trkpt>
      <trkpt lat="63.57735" lon="19.59553">
        <ele>83.064692</ele>
        <time>2020-10-01T12:12:12.066Z</time>
      </trkpt>
      <trkpt lat="63.57744" lon="19.59062">
        <ele>88.480209</ele>
        <time>2020-10-01T12:13:11.060Z</time>
      </trkpt>
      <trkpt lat="63.5772" lon="19.58448">
        <ele>70.668383</ele>
        <time>2020-10-01T12:13:51.076Z</time>
      </trkpt>
      <trkpt lat="63.57708" lon="19.57937">
        <ele>68.31026</ele>
        <time>2020-10-01T12:14:31.056Z</time>
      </trkpt>
      <trkpt lat="63.57695" lon="19.57444">
        <ele>71.759299</ele>
        <time>2020-10-01T12:15:13.096Z</time>
      </trkpt>
      <trkpt lat="63.5772" lon="19.56977">
        <ele>74.86682</ele>
        <time>2020-10-01T12:15:58.067Z</time>
      </trkpt>
      <trkpt lat="63.5782" lon="19.56597">
        <ele>77.599163</ele>
        <time>2020-10-01T12:16:59.092Z</time>
      </trkpt>
      <trkpt lat="63.57997" lon="19.5632">
        <ele>70.626917</ele>
        <time>2020-10-01T12:17:50.073Z</time>
      </trkpt>
      <trkpt lat="63.58135" lon="19.55925">
        <ele>68.407501</ele>
        <time>2020-10-01T12:18:34.081Z</time>
      </trkpt>
      <trkpt lat="63.58247" lon="19.55517">
        <ele>68.112805</ele>
        <time>2020-10-01T12:19:20.067Z</time>
      </trkpt>
      <trkpt lat="63.58319" lon="19.55043">
        <ele>66.742533</ele>
        <time>2020-10-01T12:20:10.105Z</time>
      </trkpt>
      <trkpt lat="63.58304" lon="19.54581">
        <ele>71.418223</ele>
        <time>2020-10-01T12:20:52.068Z</time>
      </trkpt>
      <trkpt lat="63.58254" lon="19.54163">
        <ele>72.351238</ele>
        <time>2020-10-01T12:21:32.093Z</time>
      </trkpt>
      <trkpt lat="63.58072" lon="19.53902">
        <ele>70.899806</ele>
        <time>2020-10-01T12:22:17.075Z</time>
      </trkpt>
      <trkpt lat="63.57957" lon="19.53528">
        <ele>67.606963</ele>
        <time>2020-10-01T12:23:02.080Z</time>
      </trkpt>
      <trkpt lat="63.57931" lon="19.5309">
        <ele>64.913249</ele>
        <time>2020-10-01T12:23:55.072Z</time>
      </trkpt>
      <trkpt lat="63.57732" lon="19.52686">
        <ele>56.371287</ele>
        <time>2020-10-01T12:24:35.063Z</time>
      </trkpt>
      <trkpt lat="63.57507" lon="19.52613">
        <ele>55.990766</ele>
        <time>2020-10-01T12:25:15.077Z</time>
      </trkpt>
      <trkpt lat="63.57268" lon="19.52453">
        <ele>49.750855</ele>
        <time>2020-10-01T12:25:55.077Z</time>
      </trkpt>
      <trkpt lat="63.5703" lon="19.52242">
        <ele>42.142148</ele>
        <time>2020-10-01T12:26:35.071Z</time>
      </trkpt>
      <trkpt lat="63.56983" lon="19.51742">
        <ele>35.84807</ele>
        <time>2020-10-01T12:27:15.101Z</time>
      </trkpt>
      <trkpt lat="63.56934" lon="19.51214">
        <ele>31.914455</ele>
        <time>2020-10-01T12:27:55.104Z</time>
      </trkpt>
      <trkpt lat="63.56886" lon="19.50712">
        <ele>33.858342</ele>
        <time>2020-10-01T12:28:35.083Z</time>
      </trkpt>
      <trkpt lat="63.56827" lon="19.50303">
        <ele>43.91811</ele>
        <time>2020-10-01T12:29:28.082Z</time>
      </trkpt>
      <trkpt lat="63.56735" lon="19.49924">
        <ele>43.358846</ele>
        <time>2020-10-01T12:30:17.103Z</time>
      </trkpt>
      <trkpt lat="63.56688" lon="19.49531">
        <ele>31.495121</ele>
        <time>2020-10-01T12:59:14.047Z</time>
      </trkpt>
      <trkpt lat="63.5686" lon="19.49365">
        <ele>33.452547</ele>
        <time>2020-10-01T13:02:13.103Z</time>
      </trkpt>
      <trkpt lat="63.57006" lon="19.48985">
        <ele>34.634646</ele>
        <time>2020-10-01T13:03:04.075Z</time>
      </trkpt>
      <trkpt lat="63.5713" lon="19.48588">
        <ele>31.79411</ele>
        <time>2020-10-01T13:03:52.116Z</time>
      </trkpt>
      <trkpt lat="63.57221" lon="19.48206">
        <ele>31.236377</ele>
        <time>2020-10-01T13:04:33.106Z</time>
      </trkpt>
      <trkpt lat="63.573" lon="19.47773">
        <ele>30.781572</ele>
        <time>2020-10-01T13:05:19.124Z</time>
      </trkpt>
      <trkpt lat="63.57345" lon="19.47295">
        <ele>31.823954</ele>
        <time>2020-10-01T13:06:07.065Z</time>
      </trkpt>
      <trkpt lat="63.57386" lon="19.46865">
        <ele>32.245712</ele>
        <time>2020-10-01T13:06:50.098Z</time>
      </trkpt>
      <trkpt lat="63.57435" lon="19.46337">
        <ele>31.216002</ele>
        <time>2020-10-01T13:07:48.106Z</time>
      </trkpt>
      <trkpt lat="63.57551" lon="19.45949">
        <ele>34.704597</ele>
        <time>2020-10-01T13:08:52.081Z</time>
      </trkpt>
    </trkseg>
  </trk>
</gpx>